Aviation Digital Data Service (ADDS)

Output produced by METARs form (1514 UTC 15 November 2018)
found at http://aviationweather.gov/metar/data/
 
METAR text: UGKO 151500Z 06003KT 9999 SCT033 BKN049 08/06 Q1019 NOSIG
Conditions at: UGKO (KOPITNARI , GE) observed 1500 UTC 15 November 2018
Temperature: 8.0°C (46°F)
Dewpoint: 6.0°C (43°F) [RH = 87%]
Pressure (altimeter): 30.09 inches Hg (1019.0 mb)
Winds: from the ENE (60 degrees) at 3 MPH (3 knots; 1.5 m/s)
Visibility: 6 or more miles (10+ km)
Ceiling: 4900 feet AGL
Clouds: scattered clouds at 3300 feet AGL
broken clouds at 4900 feet AGL
Weather: no significant weather observed at this time

METAR text: UGKO 151430Z 09003KT 9999 SCT030 BKN049 09/07 Q1019 NOSIG
Conditions at: UGKO (KOPITNARI , GE) observed 1430 UTC 15 November 2018
Temperature: 9.0°C (48°F)
Dewpoint: 7.0°C (45°F) [RH = 87%]
Pressure (altimeter): 30.09 inches Hg (1019.0 mb)
Winds: from the E (90 degrees) at 3 MPH (3 knots; 1.5 m/s)
Visibility: 6 or more miles (10+ km)
Ceiling: 4900 feet AGL
Clouds: scattered clouds at 3000 feet AGL
broken clouds at 4900 feet AGL
Weather: no significant weather observed at this time

Forecast for: UGKO (KOPITNARI , GE)
Text: TAF UGKO 151100Z 1512/1612 07006KT 9999 SCT030 OVC049 TX17/1611Z TN06/1601Z
Forecast period: 1200 UTC 15 November 2018 to 1200 UTC 16 November 2018
Forecast type: FROM: standard forecast or significant change
Winds: from the ENE (70 degrees) at 7 MPH (6 knots; 3.1 m/s)
Visibility: 6 or more miles 10+ km)
Ceiling: 4900 feet AGL
Clouds: scattered clouds at 3000 feet AGL
overcast cloud deck at 4900 feet AGL
Weather: no significant weather forecast for this period
Text: TEMPO 1520/1602 3000 SHRA BKN020CB
Forecast period: 2000 UTC 15 November 2018 to 0200 UTC 16 November 2018
Forecast type: TEMPORARY: The following changes expected for less than half the time period
Visibility: 1.86 miles (2.99 km)
Ceiling: 2000 feet AGL
Clouds: broken clouds at 2000 feet AGL
Weather: SHRA  (rain showers)
Text: TEMPO 1608/1612 08016KT
Forecast period: 0800 to 1200 UTC 16 November 2018
Forecast type: TEMPORARY: The following changes expected for less than half the time period
Winds: from the E (80 degrees) at 18 MPH (16 knots; 8.2 m/s)
Visibility: missing
Ceiling: unknown
Clouds: missing
Weather: no significant weather forecast for this period